sensor_id;sensor_type;location;lat;lon;timestamp;temperature;humidity
39255;DHT22;24957;51.386;-2.352;2022-12-05T00:00:51;5.60;99.90
39255;DHT22;24957;51.386;-2.352;2022-12-05T00:03:17;5.70;99.90
39255;DHT22;24957;51.386;-2.352;2022-12-05T00:05:42;5.80;99.90
39255;DHT22;24957;51.386;-2.352;2022-12-05T00:08:08;5.80;99.90
39255;DHT22;24957;51.386;-2.352;2022-12-05T00:10:37;5.70;99.90
39255;DHT22;24957;51.386;-2.352;2022-12-05T00:13:03;5.70;99.90
39255;DHT22;24957;51.386;-2.352;2022-12-05T00:15:29;5.70;99.90
39255;DHT22;24957;51.386;-2.352;2022-12-05T00:17:54;5.60;99.90
39255;DHT22;24957;51.386;-2.352;2022-12-05T00:20:20;5.40;99.90
39255;DHT22;24957;51.386;-2.352;2022-12-05T00:22:46;5.50;99.90
39255;DHT22;24957;51.386;-2.352;2022-12-05T00:25:12;5.60;99.90
39255;DHT22;24957;51.386;-2.352;2022-12-05T00:27:38;5.40;99.90
39255;DHT22;24957;51.386;-2.352;2022-12-05T00:30:04;5.50;99.90
39255;DHT22;24957;51.386;-2.352;2022-12-05T00:32:30;5.40;99.90
39255;DHT22;24957;51.386;-2.352;2022-12-05T00:34:56;5.50;99.90
39255;DHT22;24957;51.386;-2.352;2022-12-05T00:37:22;5.40;99.90
39255;DHT22;24957;51.386;-2.352;2022-12-05T00:39:48;5.40;99.90
39255;DHT22;24957;51.386;-2.352;2022-12-05T00:42:13;5.50;99.90
39255;DHT22;24957;51.386;-2.352;2022-12-05T00:44:39;5.50;99.90
39255;DHT22;24957;51.386;-2.352;2022-12-05T00:47:05;5.60;99.90
39255;DHT22;24957;51.386;-2.352;2022-12-05T00:49:30;5.60;99.90
39255;DHT22;24957;51.386;-2.352;2022-12-05T00:51:56;5.70;99.90
39255;DHT22;24957;51.386;-2.352;2022-12-05T00:54:22;5.50;99.90
39255;DHT22;24957;51.386;-2.352;2022-12-05T00:56:49;5.50;99.90
39255;DHT22;24957;51.386;-2.352;2022-12-05T00:59:18;5.30;99.90
39255;DHT22;24957;51.386;-2.352;2022-12-05T01:01:45;5.30;99.90
39255;DHT22;24957;51.386;-2.352;2022-12-05T01:04:29;5.40;99.90
39255;DHT22;24957;51.386;-2.352;2022-12-05T01:06:56;5.50;99.90
39255;DHT22;24957;51.386;-2.352;2022-12-05T01:09:23;5.40;99.90
39255;DHT22;24957;51.386;-2.352;2022-12-05T01:11:50;5.30;99.90
39255;DHT22;24957;51.386;-2.352;2022-12-05T01:14:17;5.30;99.90
39255;DHT22;24957;51.386;-2.352;2022-12-05T01:16:45;5.20;99.90
39255;DHT22;24957;51.386;-2.352;2022-12-05T01:19:21;5.20;99.90
39255;DHT22;24957;51.386;-2.352;2022-12-05T01:21:47;5.30;99.90
39255;DHT22;24957;51.386;-2.352;2022-12-05T01:24:13;5.40;99.90
39255;DHT22;24957;51.386;-2.352;2022-12-05T01:26:39;5.50;99.90
39255;DHT22;24957;51.386;-2.352;2022-12-05T01:29:04;5.40;99.90
39255;DHT22;24957;51.386;-2.352;2022-12-05T01:31:32;5.40;99.90
39255;DHT22;24957;51.386;-2.352;2022-12-05T01:34:00;5.30;99.90
39255;DHT22;24957;51.386;-2.352;2022-12-05T01:36:26;5.20;99.90
39255;DHT22;24957;51.386;-2.352;2022-12-05T01:38:53;5.20;99.90
39255;DHT22;24957;51.386;-2.352;2022-12-05T01:41:22;5.20;99.90
39255;DHT22;24957;51.386;-2.352;2022-12-05T01:46:32;5.20;99.90
39255;DHT22;24957;51.386;-2.352;2022-12-05T01:49:06;5.30;99.90
39255;DHT22;24957;51.386;-2.352;2022-12-05T01:51:33;5.30;99.90
39255;DHT22;24957;51.386;-2.352;2022-12-05T01:54:00;5.20;99.90
39255;DHT22;24957;51.386;-2.352;2022-12-05T01:56:26;5.30;99.90
39255;DHT22;24957;51.386;-2.352;2022-12-05T01:58:53;5.20;99.90
39255;DHT22;24957;51.386;-2.352;2022-12-05T02:01:20;5.40;99.90
39255;DHT22;24957;51.386;-2.352;2022-12-05T02:03:47;5.40;99.90
39255;DHT22;24957;51.386;-2.352;2022-12-05T02:06:15;5.40;99.90
39255;DHT22;24957;51.386;-2.352;2022-12-05T02:08:41;5.40;99.90
39255;DHT22;24957;51.386;-2.352;2022-12-05T02:11:08;5.30;99.90
39255;DHT22;24957;51.386;-2.352;2022-12-05T02:13:57;5.40;99.90
39255;DHT22;24957;51.386;-2.352;2022-12-05T02:17:13;5.30;99.90
39255;DHT22;24957;51.386;-2.352;2022-12-05T02:33:34;5.60;99.90
39255;DHT22;24957;51.386;-2.352;2022-12-05T02:36:21;5.60;99.90
39255;DHT22;24957;51.386;-2.352;2022-12-05T02:41:48;5.50;99.90
39255;DHT22;24957;51.386;-2.352;2022-12-05T02:44:36;5.50;99.90
39255;DHT22;24957;51.386;-2.352;2022-12-05T02:47:04;5.60;99.90
39255;DHT22;24957;51.386;-2.352;2022-12-05T02:49:34;5.60;99.90
39255;DHT22;24957;51.386;-2.352;2022-12-05T02:52:02;5.60;99.90
39255;DHT22;24957;51.386;-2.352;2022-12-05T02:54:32;5.60;99.90
39255;DHT22;24957;51.386;-2.352;2022-12-05T02:56:58;5.60;99.90
39255;DHT22;24957;51.386;-2.352;2022-12-05T02:59:25;5.60;99.90
39255;DHT22;24957;51.386;-2.352;2022-12-05T03:01:51;5.70;99.90
39255;DHT22;24957;51.386;-2.352;2022-12-05T03:04:18;5.70;99.90
39255;DHT22;24957;51.386;-2.352;2022-12-05T03:06:58;5.70;99.90
39255;DHT22;24957;51.386;-2.352;2022-12-05T03:09:33;5.70;99.90
39255;DHT22;24957;51.386;-2.352;2022-12-05T03:12:11;5.60;99.90
39255;DHT22;24957;51.386;-2.352;2022-12-05T03:14:41;5.60;99.90
39255;DHT22;24957;51.386;-2.352;2022-12-05T03:17:10;5.50;99.90
39255;DHT22;24957;51.386;-2.352;2022-12-05T03:22:32;5.60;99.90
39255;DHT22;24957;51.386;-2.352;2022-12-05T03:25:00;5.60;99.90
39255;DHT22;24957;51.386;-2.352;2022-12-05T03:27:39;5.60;99.90
39255;DHT22;24957;51.386;-2.352;2022-12-05T03:30:10;5.60;99.90
39255;DHT22;24957;51.386;-2.352;2022-12-05T03:33:16;5.60;99.90
39255;DHT22;24957;51.386;-2.352;2022-12-05T03:35:56;5.80;99.90
39255;DHT22;24957;51.386;-2.352;2022-12-05T03:38:43;5.90;99.90
39255;DHT22;24957;51.386;-2.352;2022-12-05T03:46:22;5.80;99.90
39255;DHT22;24957;51.386;-2.352;2022-12-05T03:49:02;5.80;99.90
39255;DHT22;24957;51.386;-2.352;2022-12-05T03:51:41;5.70;99.90
39255;DHT22;24957;51.386;-2.352;2022-12-05T03:54:17;5.70;99.90
39255;DHT22;24957;51.386;-2.352;2022-12-05T03:56:48;5.60;99.90
39255;DHT22;24957;51.386;-2.352;2022-12-05T03:59:22;5.70;99.90
39255;DHT22;24957;51.386;-2.352;2022-12-05T04:01:51;5.90;99.90
39255;DHT22;24957;51.386;-2.352;2022-12-05T04:04:27;5.90;99.90
39255;DHT22;24957;51.386;-2.352;2022-12-05T04:06:58;5.90;99.90
39255;DHT22;24957;51.386;-2.352;2022-12-05T04:09:30;5.80;99.90
39255;DHT22;24957;51.386;-2.352;2022-12-05T04:12:01;5.80;99.90
39255;DHT22;24957;51.386;-2.352;2022-12-05T04:14:34;5.80;99.90
39255;DHT22;24957;51.386;-2.352;2022-12-05T04:17:09;5.80;99.90
39255;DHT22;24957;51.386;-2.352;2022-12-05T04:19:48;5.70;99.90
39255;DHT22;24957;51.386;-2.352;2022-12-05T04:22:35;5.70;99.90
39255;DHT22;24957;51.386;-2.352;2022-12-05T04:25:03;5.70;99.90
39255;DHT22;24957;51.386;-2.352;2022-12-05T04:30:25;5.90;99.90
39255;DHT22;24957;51.386;-2.352;2022-12-05T04:33:07;6.00;99.90
39255;DHT22;24957;51.386;-2.352;2022-12-05T04:35:40;6.00;99.90
39255;DHT22;24957;51.386;-2.352;2022-12-05T04:38:36;6.00;99.90
39255;DHT22;24957;51.386;-2.352;2022-12-05T04:41:12;5.90;99.90
39255;DHT22;24957;51.386;-2.352;2022-12-05T04:43:40;5.90;99.90
39255;DHT22;24957;51.386;-2.352;2022-12-05T04:46:09;5.70;99.90
39255;DHT22;24957;51.386;-2.352;2022-12-05T04:48:38;5.70;99.90
39255;DHT22;24957;51.386;-2.352;2022-12-05T04:51:13;5.70;99.90
39255;DHT22;24957;51.386;-2.352;2022-12-05T04:53:42;5.70;99.90
39255;DHT22;24957;51.386;-2.352;2022-12-05T04:56:10;5.70;99.90
39255;DHT22;24957;51.386;-2.352;2022-12-05T04:58:36;5.70;99.90
39255;DHT22;24957;51.386;-2.352;2022-12-05T05:01:22;5.80;99.90
39255;DHT22;24957;51.386;-2.352;2022-12-05T05:06:24;5.80;99.90
39255;DHT22;24957;51.386;-2.352;2022-12-05T05:08:54;5.80;99.90
39255;DHT22;24957;51.386;-2.352;2022-12-05T05:11:25;5.70;99.90
39255;DHT22;24957;51.386;-2.352;2022-12-05T05:13:52;5.90;99.90
39255;DHT22;24957;51.386;-2.352;2022-12-05T05:16:26;6.00;99.90
39255;DHT22;24957;51.386;-2.352;2022-12-05T05:18:52;6.00;99.90
39255;DHT22;24957;51.386;-2.352;2022-12-05T05:21:39;5.90;99.90
39255;DHT22;24957;51.386;-2.352;2022-12-05T05:24:05;5.90;99.90
39255;DHT22;24957;51.386;-2.352;2022-12-05T05:26:33;5.90;99.90
39255;DHT22;24957;51.386;-2.352;2022-12-05T05:29:01;5.90;99.90
39255;DHT22;24957;51.386;-2.352;2022-12-05T05:31:27;5.80;99.90
39255;DHT22;24957;51.386;-2.352;2022-12-05T05:33:55;5.80;99.90
39255;DHT22;24957;51.386;-2.352;2022-12-05T05:36:23;6.00;99.90
39255;DHT22;24957;51.386;-2.352;2022-12-05T05:38:51;5.90;99.90
39255;DHT22;24957;51.386;-2.352;2022-12-05T05:41:31;5.90;99.90
39255;DHT22;24957;51.386;-2.352;2022-12-05T05:43:58;6.00;99.90
39255;DHT22;24957;51.386;-2.352;2022-12-05T05:46:27;6.00;99.90
39255;DHT22;24957;51.386;-2.352;2022-12-05T05:48:53;6.00;99.90
39255;DHT22;24957;51.386;-2.352;2022-12-05T05:51:20;6.00;99.90
39255;DHT22;24957;51.386;-2.352;2022-12-05T05:53:46;6.00;99.90
39255;DHT22;24957;51.386;-2.352;2022-12-05T05:56:14;6.00;99.90
39255;DHT22;24957;51.386;-2.352;2022-12-05T05:58:41;6.10;99.90
39255;DHT22;24957;51.386;-2.352;2022-12-05T06:01:07;6.00;99.90
39255;DHT22;24957;51.386;-2.352;2022-12-05T06:03:33;6.10;99.90
39255;DHT22;24957;51.386;-2.352;2022-12-05T06:06:02;6.00;99.90
39255;DHT22;24957;51.386;-2.352;2022-12-05T06:08:34;5.90;99.90
39255;DHT22;24957;51.386;-2.352;2022-12-05T06:11:24;6.00;99.90
39255;DHT22;24957;51.386;-2.352;2022-12-05T06:13:49;6.00;99.90
39255;DHT22;24957;51.386;-2.352;2022-12-05T06:16:16;5.90;99.90
39255;DHT22;24957;51.386;-2.352;2022-12-05T06:18:42;5.90;99.90
39255;DHT22;24957;51.386;-2.352;2022-12-05T06:21:09;5.90;99.90
39255;DHT22;24957;51.386;-2.352;2022-12-05T06:23:36;5.90;99.90
39255;DHT22;24957;51.386;-2.352;2022-12-05T06:26:03;5.90;99.90
39255;DHT22;24957;51.386;-2.352;2022-12-05T06:28:29;5.90;99.90
39255;DHT22;24957;51.386;-2.352;2022-12-05T06:30:56;6.00;99.90
39255;DHT22;24957;51.386;-2.352;2022-12-05T06:33:21;6.00;99.90
39255;DHT22;24957;51.386;-2.352;2022-12-05T06:35:47;6.00;99.90
39255;DHT22;24957;51.386;-2.352;2022-12-05T06:38:13;6.00;99.90
39255;DHT22;24957;51.386;-2.352;2022-12-05T06:40:40;6.00;99.90
39255;DHT22;24957;51.386;-2.352;2022-12-05T06:43:06;6.10;99.90
39255;DHT22;24957;51.386;-2.352;2022-12-05T06:45:32;6.10;99.90
39255;DHT22;24957;51.386;-2.352;2022-12-05T06:47:57;6.10;99.90
39255;DHT22;24957;51.386;-2.352;2022-12-05T06:50:23;6.10;99.90
39255;DHT22;24957;51.386;-2.352;2022-12-05T06:52:50;6.10;99.90
39255;DHT22;24957;51.386;-2.352;2022-12-05T06:55:15;6.40;99.90
39255;DHT22;24957;51.386;-2.352;2022-12-05T06:57:41;6.30;99.90
39255;DHT22;24957;51.386;-2.352;2022-12-05T07:00:07;6.30;99.90
39255;DHT22;24957;51.386;-2.352;2022-12-05T07:02:52;6.20;99.90
39255;DHT22;24957;51.386;-2.352;2022-12-05T07:05:18;6.30;99.90
39255;DHT22;24957;51.386;-2.352;2022-12-05T07:07:44;6.30;99.90
39255;DHT22;24957;51.386;-2.352;2022-12-05T07:10:10;6.20;99.90
39255;DHT22;24957;51.386;-2.352;2022-12-05T07:12:35;6.30;99.90
39255;DHT22;24957;51.386;-2.352;2022-12-05T07:15:01;6.20;99.90
39255;DHT22;24957;51.386;-2.352;2022-12-05T07:17:27;6.20;99.90
39255;DHT22;24957;51.386;-2.352;2022-12-05T07:19:53;6.20;99.90
39255;DHT22;24957;51.386;-2.352;2022-12-05T07:22:20;6.20;99.90
39255;DHT22;24957;51.386;-2.352;2022-12-05T07:24:46;6.30;99.90
39255;DHT22;24957;51.386;-2.352;2022-12-05T07:27:13;6.40;99.90
39255;DHT22;24957;51.386;-2.352;2022-12-05T07:29:39;6.30;99.90
39255;DHT22;24957;51.386;-2.352;2022-12-05T07:32:05;6.20;99.90
39255;DHT22;24957;51.386;-2.352;2022-12-05T07:34:31;6.20;99.90
39255;DHT22;24957;51.386;-2.352;2022-12-05T07:36:56;6.20;99.90
39255;DHT22;24957;51.386;-2.352;2022-12-05T07:39:22;6.30;99.90
39255;DHT22;24957;51.386;-2.352;2022-12-05T07:41:47;6.30;99.90
39255;DHT22;24957;51.386;-2.352;2022-12-05T07:44:13;6.20;99.90
39255;DHT22;24957;51.386;-2.352;2022-12-05T07:46:39;6.20;99.90
39255;DHT22;24957;51.386;-2.352;2022-12-05T07:49:05;6.20;99.90
39255;DHT22;24957;51.386;-2.352;2022-12-05T07:51:31;6.10;99.90
39255;DHT22;24957;51.386;-2.352;2022-12-05T07:53:58;6.20;99.90
39255;DHT22;24957;51.386;-2.352;2022-12-05T07:56:24;6.20;99.90
39255;DHT22;24957;51.386;-2.352;2022-12-05T07:58:50;6.20;99.90
39255;DHT22;24957;51.386;-2.352;2022-12-05T08:01:18;6.20;99.90
39255;DHT22;24957;51.386;-2.352;2022-12-05T08:03:44;6.30;99.90
39255;DHT22;24957;51.386;-2.352;2022-12-05T08:06:13;6.30;99.90
39255;DHT22;24957;51.386;-2.352;2022-12-05T08:08:39;6.30;99.90
39255;DHT22;24957;51.386;-2.352;2022-12-05T08:11:14;6.30;99.90
39255;DHT22;24957;51.386;-2.352;2022-12-05T08:13:40;6.20;99.90
39255;DHT22;24957;51.386;-2.352;2022-12-05T08:16:09;6.20;99.90
39255;DHT22;24957;51.386;-2.352;2022-12-05T08:18:35;6.20;99.90
39255;DHT22;24957;51.386;-2.352;2022-12-05T08:21:09;6.30;99.90
39255;DHT22;24957;51.386;-2.352;2022-12-05T08:23:36;6.30;99.90
39255;DHT22;24957;51.386;-2.352;2022-12-05T08:26:09;6.40;99.90
39255;DHT22;24957;51.386;-2.352;2022-12-05T08:28:35;6.30;99.90
39255;DHT22;24957;51.386;-2.352;2022-12-05T08:31:05;6.40;99.90
39255;DHT22;24957;51.386;-2.352;2022-12-05T08:33:31;6.50;99.90
39255;DHT22;24957;51.386;-2.352;2022-12-05T08:35:59;6.50;99.90
39255;DHT22;24957;51.386;-2.352;2022-12-05T08:38:25;6.40;99.90
39255;DHT22;24957;51.386;-2.352;2022-12-05T08:40:51;6.40;99.90
39255;DHT22;24957;51.386;-2.352;2022-12-05T08:43:16;6.50;99.90
39255;DHT22;24957;51.386;-2.352;2022-12-05T08:45:48;6.60;99.90
39255;DHT22;24957;51.386;-2.352;2022-12-05T08:48:14;6.60;99.90
39255;DHT22;24957;51.386;-2.352;2022-12-05T08:50:40;6.50;99.90
39255;DHT22;24957;51.386;-2.352;2022-12-05T08:53:05;6.50;99.90
39255;DHT22;24957;51.386;-2.352;2022-12-05T08:55:34;6.50;99.90
39255;DHT22;24957;51.386;-2.352;2022-12-05T08:57:59;6.60;99.90
39255;DHT22;24957;51.386;-2.352;2022-12-05T09:00:25;6.50;99.90
39255;DHT22;24957;51.386;-2.352;2022-12-05T09:02:51;6.50;99.90
39255;DHT22;24957;51.386;-2.352;2022-12-05T09:05:16;6.50;99.90
39255;DHT22;24957;51.386;-2.352;2022-12-05T09:07:42;6.60;99.90
39255;DHT22;24957;51.386;-2.352;2022-12-05T09:10:08;6.70;99.90
39255;DHT22;24957;51.386;-2.352;2022-12-05T09:12:35;6.80;99.90
39255;DHT22;24957;51.386;-2.352;2022-12-05T09:15:01;6.90;99.90
39255;DHT22;24957;51.386;-2.352;2022-12-05T09:17:27;6.90;99.90
39255;DHT22;24957;51.386;-2.352;2022-12-05T09:19:52;6.90;99.90
39255;DHT22;24957;51.386;-2.352;2022-12-05T09:22:18;6.90;99.90
39255;DHT22;24957;51.386;-2.352;2022-12-05T09:24:44;7.00;99.90
39255;DHT22;24957;51.386;-2.352;2022-12-05T09:27:09;7.00;99.90
39255;DHT22;24957;51.386;-2.352;2022-12-05T09:29:35;7.10;99.90
39255;DHT22;24957;51.386;-2.352;2022-12-05T09:32:01;7.10;99.90
39255;DHT22;24957;51.386;-2.352;2022-12-05T09:34:27;7.10;99.90
39255;DHT22;24957;51.386;-2.352;2022-12-05T09:36:53;7.20;99.90
39255;DHT22;24957;51.386;-2.352;2022-12-05T09:39:19;7.30;99.90
39255;DHT22;24957;51.386;-2.352;2022-12-05T09:52:36;7.40;99.90
39255;DHT22;24957;51.386;-2.352;2022-12-05T09:55:10;7.40;99.90
39255;DHT22;24957;51.386;-2.352;2022-12-05T09:57:41;7.40;99.90
39255;DHT22;24957;51.386;-2.352;2022-12-05T10:00:09;7.40;99.90
39255;DHT22;24957;51.386;-2.352;2022-12-05T10:02:53;7.50;99.90
39255;DHT22;24957;51.386;-2.352;2022-12-05T10:05:33;7.50;99.90
39255;DHT22;24957;51.386;-2.352;2022-12-05T10:11:03;7.40;99.90
39255;DHT22;24957;51.386;-2.352;2022-12-05T10:13:56;7.50;99.90
39255;DHT22;24957;51.386;-2.352;2022-12-05T10:16:31;7.70;99.90
39255;DHT22;24957;51.386;-2.352;2022-12-05T10:19:03;7.80;99.90
39255;DHT22;24957;51.386;-2.352;2022-12-05T10:21:43;7.70;99.90
39255;DHT22;24957;51.386;-2.352;2022-12-05T10:24:15;7.50;99.90
39255;DHT22;24957;51.386;-2.352;2022-12-05T10:26:48;7.50;99.90
39255;DHT22;24957;51.386;-2.352;2022-12-05T10:32:01;7.70;99.90
39255;DHT22;24957;51.386;-2.352;2022-12-05T10:34:42;7.60;99.90
39255;DHT22;24957;51.386;-2.352;2022-12-05T10:37:21;7.60;99.90
39255;DHT22;24957;51.386;-2.352;2022-12-05T10:39:49;7.60;99.90
39255;DHT22;24957;51.386;-2.352;2022-12-05T10:42:18;7.70;99.90
39255;DHT22;24957;51.386;-2.352;2022-12-05T10:44:45;7.70;99.90
39255;DHT22;24957;51.386;-2.352;2022-12-05T10:47:11;7.90;99.90
39255;DHT22;24957;51.386;-2.352;2022-12-05T10:49:37;8.00;99.90
39255;DHT22;24957;51.386;-2.352;2022-12-05T10:52:05;7.90;99.90
39255;DHT22;24957;51.386;-2.352;2022-12-05T10:54:36;8.00;99.90
39255;DHT22;24957;51.386;-2.352;2022-12-05T10:57:20;8.00;99.90
39255;DHT22;24957;51.386;-2.352;2022-12-05T10:59:47;8.00;99.90
39255;DHT22;24957;51.386;-2.352;2022-12-05T11:02:29;7.90;99.90
39255;DHT22;24957;51.386;-2.352;2022-12-05T11:04:56;7.90;99.90
39255;DHT22;24957;51.386;-2.352;2022-12-05T11:09:54;7.90;99.90
39255;DHT22;24957;51.386;-2.352;2022-12-05T11:12:27;8.00;99.90
39255;DHT22;24957;51.386;-2.352;2022-12-05T11:15:00;8.10;99.90
39255;DHT22;24957;51.386;-2.352;2022-12-05T11:17:38;8.10;99.90
39255;DHT22;24957;51.386;-2.352;2022-12-05T11:22:54;8.10;99.90
39255;DHT22;24957;51.386;-2.352;2022-12-05T11:28:42;8.10;99.90
39255;DHT22;24957;51.386;-2.352;2022-12-05T11:33:25;8.00;99.90
39255;DHT22;24957;51.386;-2.352;2022-12-05T11:35:54;8.10;99.90
39255;DHT22;24957;51.386;-2.352;2022-12-05T11:38:26;8.20;99.90
39255;DHT22;24957;51.386;-2.352;2022-12-05T11:49:55;8.50;99.90
39255;DHT22;24957;51.386;-2.352;2022-12-05T11:58:43;8.60;99.90
39255;DHT22;24957;51.386;-2.352;2022-12-05T12:02:06;8.60;99.90
39255;DHT22;24957;51.386;-2.352;2022-12-05T12:10:10;8.50;99.90
39255;DHT22;24957;51.386;-2.352;2022-12-05T12:12:43;8.60;99.90
39255;DHT22;24957;51.386;-2.352;2022-12-05T12:18:12;8.80;99.90
39255;DHT22;24957;51.386;-2.352;2022-12-05T12:20:51;8.90;99.90
39255;DHT22;24957;51.386;-2.352;2022-12-05T12:23:42;8.90;99.90
39255;DHT22;24957;51.386;-2.352;2022-12-05T12:26:13;9.00;99.90
39255;DHT22;24957;51.386;-2.352;2022-12-05T12:32:13;8.90;99.90
39255;DHT22;24957;51.386;-2.352;2022-12-05T12:37:42;9.00;99.90
39255;DHT22;24957;51.386;-2.352;2022-12-05T12:40:20;9.10;99.90
39255;DHT22;24957;51.386;-2.352;2022-12-05T12:46:28;9.10;99.90
39255;DHT22;24957;51.386;-2.352;2022-12-05T12:49:34;9.00;99.90
39255;DHT22;24957;51.386;-2.352;2022-12-05T12:52:13;9.00;99.90
39255;DHT22;24957;51.386;-2.352;2022-12-05T12:54:55;8.90;99.90
39255;DHT22;24957;51.386;-2.352;2022-12-05T13:10:36;8.80;99.90
39255;DHT22;24957;51.386;-2.352;2022-12-05T13:13:04;8.80;99.90
39255;DHT22;24957;51.386;-2.352;2022-12-05T13:16:09;8.80;99.90
39255;DHT22;24957;51.386;-2.352;2022-12-05T13:18:37;8.80;99.90
39255;DHT22;24957;51.386;-2.352;2022-12-05T13:21:06;8.80;99.90
39255;DHT22;24957;51.386;-2.352;2022-12-05T13:23:56;8.90;99.90
39255;DHT22;24957;51.386;-2.352;2022-12-05T13:26:21;8.90;99.90
39255;DHT22;24957;51.386;-2.352;2022-12-05T13:28:59;8.90;99.90
39255;DHT22;24957;51.386;-2.352;2022-12-05T13:31:43;8.90;99.90
39255;DHT22;24957;51.386;-2.352;2022-12-05T13:34:45;8.80;99.90
39255;DHT22;24957;51.386;-2.352;2022-12-05T13:37:27;8.80;99.90
39255;DHT22;24957;51.386;-2.352;2022-12-05T13:40:32;8.80;99.90
39255;DHT22;24957;51.386;-2.352;2022-12-05T13:43:23;8.80;99.90
39255;DHT22;24957;51.386;-2.352;2022-12-05T13:46:07;8.80;99.90
39255;DHT22;24957;51.386;-2.352;2022-12-05T13:48:36;9.00;99.90
39255;DHT22;24957;51.386;-2.352;2022-12-05T13:51:04;9.10;99.90
39255;DHT22;24957;51.386;-2.352;2022-12-05T14:17:40;9.00;99.90
39255;DHT22;24957;51.386;-2.352;2022-12-05T14:20:45;9.00;99.90
39255;DHT22;24957;51.386;-2.352;2022-12-05T14:23:38;9.00;99.90
39255;DHT22;24957;51.386;-2.352;2022-12-05T14:34:26;8.70;99.90
39255;DHT22;24957;51.386;-2.352;2022-12-05T14:37:06;8.70;99.90
39255;DHT22;24957;51.386;-2.352;2022-12-05T14:39:41;8.70;99.90
39255;DHT22;24957;51.386;-2.352;2022-12-05T14:44:50;8.70;99.90
39255;DHT22;24957;51.386;-2.352;2022-12-05T14:47:22;8.70;99.90
39255;DHT22;24957;51.386;-2.352;2022-12-05T14:52:25;8.70;99.90
39255;DHT22;24957;51.386;-2.352;2022-12-05T14:55:10;8.80;99.90
39255;DHT22;24957;51.386;-2.352;2022-12-05T14:57:44;8.80;99.90
39255;DHT22;24957;51.386;-2.352;2022-12-05T15:00:20;8.80;99.90
39255;DHT22;24957;51.386;-2.352;2022-12-05T15:02:48;8.70;99.90
39255;DHT22;24957;51.386;-2.352;2022-12-05T15:05:27;8.70;99.90
39255;DHT22;24957;51.386;-2.352;2022-12-05T15:07:57;8.60;99.90
39255;DHT22;24957;51.386;-2.352;2022-12-05T15:10:26;8.70;99.90
39255;DHT22;24957;51.386;-2.352;2022-12-05T15:12:57;8.60;99.90
39255;DHT22;24957;51.386;-2.352;2022-12-05T15:15:34;8.60;99.90
39255;DHT22;24957;51.386;-2.352;2022-12-05T15:18:23;8.60;99.90
39255;DHT22;24957;51.386;-2.352;2022-12-05T15:20:57;8.70;99.90
39255;DHT22;24957;51.386;-2.352;2022-12-05T15:23:44;8.70;99.90
39255;DHT22;24957;51.386;-2.352;2022-12-05T15:29:05;8.60;99.90
39255;DHT22;24957;51.386;-2.352;2022-12-05T15:31:36;8.50;99.90
39255;DHT22;24957;51.386;-2.352;2022-12-05T15:39:50;8.40;99.90
39255;DHT22;24957;51.386;-2.352;2022-12-05T15:42:17;8.50;99.90
39255;DHT22;24957;51.386;-2.352;2022-12-05T15:44:42;8.50;99.90
39255;DHT22;24957;51.386;-2.352;2022-12-05T15:47:23;8.30;99.90
39255;DHT22;24957;51.386;-2.352;2022-12-05T15:49:50;8.20;99.90
39255;DHT22;24957;51.386;-2.352;2022-12-05T15:55:14;8.00;99.90
39255;DHT22;24957;51.386;-2.352;2022-12-05T15:57:44;8.00;99.90
39255;DHT22;24957;51.386;-2.352;2022-12-05T16:00:16;7.90;99.90
39255;DHT22;24957;51.386;-2.352;2022-12-05T16:02:53;7.90;99.90
39255;DHT22;24957;51.386;-2.352;2022-12-05T16:05:45;7.80;99.90
39255;DHT22;24957;51.386;-2.352;2022-12-05T16:08:13;7.70;99.90
39255;DHT22;24957;51.386;-2.352;2022-12-05T16:10:39;7.80;99.90
39255;DHT22;24957;51.386;-2.352;2022-12-05T16:13:13;7.80;99.90
39255;DHT22;24957;51.386;-2.352;2022-12-05T16:15:44;7.80;99.90
39255;DHT22;24957;51.386;-2.352;2022-12-05T16:18:30;7.80;99.90
39255;DHT22;24957;51.386;-2.352;2022-12-05T16:20:57;7.90;99.90
39255;DHT22;24957;51.386;-2.352;2022-12-05T16:25:51;7.90;99.90
39255;DHT22;24957;51.386;-2.352;2022-12-05T16:28:19;7.90;99.90
39255;DHT22;24957;51.386;-2.352;2022-12-05T16:30:56;8.00;99.90
39255;DHT22;24957;51.386;-2.352;2022-12-05T16:33:22;8.10;99.90
39255;DHT22;24957;51.386;-2.352;2022-12-05T16:35:49;8.20;99.90
39255;DHT22;24957;51.386;-2.352;2022-12-05T16:38:25;8.20;99.90
39255;DHT22;24957;51.386;-2.352;2022-12-05T16:41:02;8.10;99.90
39255;DHT22;24957;51.386;-2.352;2022-12-05T16:51:45;8.20;99.90
39255;DHT22;24957;51.386;-2.352;2022-12-05T16:54:17;8.20;99.90
39255;DHT22;24957;51.386;-2.352;2022-12-05T16:56:42;8.10;99.90
39255;DHT22;24957;51.386;-2.352;2022-12-05T16:59:16;8.10;99.90
39255;DHT22;24957;51.386;-2.352;2022-12-05T17:01:44;8.10;99.90
39255;DHT22;24957;51.386;-2.352;2022-12-05T17:04:10;8.00;99.90
39255;DHT22;24957;51.386;-2.352;2022-12-05T17:06:36;8.00;99.90
39255;DHT22;24957;51.386;-2.352;2022-12-05T17:09:02;8.20;99.90
39255;DHT22;24957;51.386;-2.352;2022-12-05T17:11:32;8.20;99.90
39255;DHT22;24957;51.386;-2.352;2022-12-05T17:13:59;8.20;99.90
39255;DHT22;24957;51.386;-2.352;2022-12-05T17:16:26;8.20;99.90
39255;DHT22;24957;51.386;-2.352;2022-12-05T17:18:52;8.20;99.90
39255;DHT22;24957;51.386;-2.352;2022-12-05T17:21:21;8.10;99.90
39255;DHT22;24957;51.386;-2.352;2022-12-05T17:23:47;8.10;99.90
39255;DHT22;24957;51.386;-2.352;2022-12-05T17:26:15;8.10;99.90
39255;DHT22;24957;51.386;-2.352;2022-12-05T17:28:41;8.20;99.90
39255;DHT22;24957;51.386;-2.352;2022-12-05T17:31:08;8.20;99.90
39255;DHT22;24957;51.386;-2.352;2022-12-05T17:33:35;8.30;99.90
39255;DHT22;24957;51.386;-2.352;2022-12-05T17:36:00;8.20;99.90
39255;DHT22;24957;51.386;-2.352;2022-12-05T17:38:26;8.30;99.90
39255;DHT22;24957;51.386;-2.352;2022-12-05T17:40:51;8.40;99.90
39255;DHT22;24957;51.386;-2.352;2022-12-05T17:43:17;8.50;99.90
39255;DHT22;24957;51.386;-2.352;2022-12-05T17:45:43;8.50;99.90
39255;DHT22;24957;51.386;-2.352;2022-12-05T17:48:11;8.50;99.90
39255;DHT22;24957;51.386;-2.352;2022-12-05T17:50:46;8.50;99.90
39255;DHT22;24957;51.386;-2.352;2022-12-05T17:53:16;8.50;99.90
39255;DHT22;24957;51.386;-2.352;2022-12-05T17:55:42;8.50;99.90
39255;DHT22;24957;51.386;-2.352;2022-12-05T17:58:09;8.50;99.90
39255;DHT22;24957;51.386;-2.352;2022-12-05T18:00:35;8.50;99.90
39255;DHT22;24957;51.386;-2.352;2022-12-05T18:03:02;8.50;99.90
39255;DHT22;24957;51.386;-2.352;2022-12-05T18:05:28;8.40;99.90
39255;DHT22;24957;51.386;-2.352;2022-12-05T18:07:53;8.30;99.90
39255;DHT22;24957;51.386;-2.352;2022-12-05T18:10:21;8.20;99.90
39255;DHT22;24957;51.386;-2.352;2022-12-05T18:12:48;8.20;99.90
39255;DHT22;24957;51.386;-2.352;2022-12-05T18:15:14;8.30;99.90
39255;DHT22;24957;51.386;-2.352;2022-12-05T18:17:40;8.20;99.90
39255;DHT22;24957;51.386;-2.352;2022-12-05T18:20:08;8.20;99.90
39255;DHT22;24957;51.386;-2.352;2022-12-05T18:22:34;8.20;99.90
39255;DHT22;24957;51.386;-2.352;2022-12-05T18:25:00;8.30;99.90
39255;DHT22;24957;51.386;-2.352;2022-12-05T18:27:28;8.30;99.90
39255;DHT22;24957;51.386;-2.352;2022-12-05T18:29:54;8.30;99.90
39255;DHT22;24957;51.386;-2.352;2022-12-05T18:32:20;8.20;99.90
39255;DHT22;24957;51.386;-2.352;2022-12-05T18:34:46;8.10;99.90
39255;DHT22;24957;51.386;-2.352;2022-12-05T18:37:12;8.10;99.90
39255;DHT22;24957;51.386;-2.352;2022-12-05T18:39:38;8.20;99.90